Main page
METAR-TAF:

METAR-TAF

Airports :

Gorna Oryahovitsa Airport

Veliko Tarnovo, Bulgaria

latitude: 43-09N, longitude: 025-36E, elevation: 87 m

Current weather observation

The report was made 1 hour and 22 minutes ago, at 03:30 UTC
Wind 4 kt from the East
Temperature 2°C
Humidity 100%
Pressure 1019 hPa
Visibility 10 km or more

METAR: LBGO 250330Z AUTO 10004KT 9999 NCD 02/02 Q1019 TEMPO 5000 BR

Time: 07:52 (04:52 UTC)

Forecast

The report was made 5 hours and 52 minutes ago, at 23:00 UTC
Forecast valid from 25 at 00 UTC to 25 at 24 UTC
Wind 4 kt from variable directions
Visibility 10 km or more
no clouds below 1500 m and no cumulonimbus
Temporary
from 25 at 01 UTC to 25 at 05 UTC
Visibility: 1500 m
Scattered clouds at a height of 1200 ft
mist
Probability 30%
from 25 at 02 UTC to 25 at 05 UTC
Visibility: 0800 m
Broken clouds at a height of 300 ft
patches of fog

TAF: LBGO 242300Z 2500/2524 VRB04KT CAVOK TEMPO 2501/2505 1500 BR SCT012 PROB30 2502/2505 0800 BCFG BKN003

Weather observations and forecasts of more than 4000 airports (METAR and TAF reports).

The available stations are represented by yellow and red dots on the map.

Hover mouse over dot to see the name of the station.

Then click to see weather observations and forecasts.

To change the map : click on the green buttons with a black cross to zoom in, on the green button with a dash to zoom out, or on the green arrows for adjacent maps.


METAR-TAF: